sensor_id;sensor_type;location;lat;lon;timestamp;temperature;humidity
4097;DHT22;2062;50.694;7.246;2023-04-24T00:01:20;11.70;50.00
4097;DHT22;2062;50.694;7.246;2023-04-24T00:03:47;11.70;50.10
4097;DHT22;2062;50.694;7.246;2023-04-24T00:06:14;11.70;50.00
4097;DHT22;2062;50.694;7.246;2023-04-24T00:08:42;11.70;50.20
4097;DHT22;2062;50.694;7.246;2023-04-24T00:11:10;11.70;50.20
4097;DHT22;2062;50.694;7.246;2023-04-24T00:13:38;11.70;50.30
4097;DHT22;2062;50.694;7.246;2023-04-24T00:16:05;11.80;50.30
4097;DHT22;2062;50.694;7.246;2023-04-24T00:18:32;11.80;50.30
4097;DHT22;2062;50.694;7.246;2023-04-24T00:20:59;11.80;50.50
4097;DHT22;2062;50.694;7.246;2023-04-24T00:23:26;11.80;50.40
4097;DHT22;2062;50.694;7.246;2023-04-24T00:25:53;11.80;50.50
4097;DHT22;2062;50.694;7.246;2023-04-24T00:28:21;11.70;50.50
4097;DHT22;2062;50.694;7.246;2023-04-24T00:30:48;11.80;50.60
4097;DHT22;2062;50.694;7.246;2023-04-24T00:33:15;11.80;50.50
4097;DHT22;2062;50.694;7.246;2023-04-24T00:35:41;11.80;50.50
4097;DHT22;2062;50.694;7.246;2023-04-24T00:38:08;11.80;50.70
4097;DHT22;2062;50.694;7.246;2023-04-24T00:40:35;11.80;50.70
4097;DHT22;2062;50.694;7.246;2023-04-24T00:43:02;11.80;50.70
4097;DHT22;2062;50.694;7.246;2023-04-24T00:45:30;11.80;50.60
4097;DHT22;2062;50.694;7.246;2023-04-24T00:47:58;11.80;50.80
4097;DHT22;2062;50.694;7.246;2023-04-24T00:50:25;11.70;50.80
4097;DHT22;2062;50.694;7.246;2023-04-24T00:52:52;11.80;50.80
4097;DHT22;2062;50.694;7.246;2023-04-24T00:55:19;11.80;50.80
4097;DHT22;2062;50.694;7.246;2023-04-24T00:57:46;11.80;50.70
4097;DHT22;2062;50.694;7.246;2023-04-24T01:00:15;11.70;50.90
4097;DHT22;2062;50.694;7.246;2023-04-24T01:02:44;11.80;50.80
4097;DHT22;2062;50.694;7.246;2023-04-24T01:05:12;11.80;50.90
4097;DHT22;2062;50.694;7.246;2023-04-24T01:07:43;11.80;51.00
4097;DHT22;2062;50.694;7.246;2023-04-24T01:10:11;11.80;51.10
4097;DHT22;2062;50.694;7.246;2023-04-24T01:12:39;11.70;51.20
4097;DHT22;2062;50.694;7.246;2023-04-24T01:15:07;11.80;51.20
4097;DHT22;2062;50.694;7.246;2023-04-24T01:17:34;11.80;51.20
4097;DHT22;2062;50.694;7.246;2023-04-24T01:20:03;11.80;51.20
4097;DHT22;2062;50.694;7.246;2023-04-24T01:22:33;11.80;51.30
4097;DHT22;2062;50.694;7.246;2023-04-24T01:25:00;11.70;51.30
4097;DHT22;2062;50.694;7.246;2023-04-24T01:27:28;11.80;51.30
4097;DHT22;2062;50.694;7.246;2023-04-24T01:29:55;11.70;51.30
4097;DHT22;2062;50.694;7.246;2023-04-24T01:32:22;11.70;51.30
4097;DHT22;2062;50.694;7.246;2023-04-24T01:34:49;11.70;51.60
4097;DHT22;2062;50.694;7.246;2023-04-24T01:37:17;11.80;51.80
4097;DHT22;2062;50.694;7.246;2023-04-24T01:39:45;11.80;51.90
4097;DHT22;2062;50.694;7.246;2023-04-24T01:42:12;11.70;51.70
4097;DHT22;2062;50.694;7.246;2023-04-24T01:44:40;11.70;51.90
4097;DHT22;2062;50.694;7.246;2023-04-24T01:47:07;11.70;52.20
4097;DHT22;2062;50.694;7.246;2023-04-24T01:49:34;11.70;51.80
4097;DHT22;2062;50.694;7.246;2023-04-24T01:52:01;11.70;51.30
4097;DHT22;2062;50.694;7.246;2023-04-24T01:54:28;11.70;51.00
4097;DHT22;2062;50.694;7.246;2023-04-24T01:56:56;11.70;50.70
4097;DHT22;2062;50.694;7.246;2023-04-24T01:59:25;11.70;50.30
4097;DHT22;2062;50.694;7.246;2023-04-24T02:01:53;11.60;49.70
4097;DHT22;2062;50.694;7.246;2023-04-24T02:04:20;11.60;49.70
4097;DHT22;2062;50.694;7.246;2023-04-24T02:06:47;11.60;49.30
4097;DHT22;2062;50.694;7.246;2023-04-24T02:09:14;11.60;49.20
4097;DHT22;2062;50.694;7.246;2023-04-24T02:11:40;11.50;48.90
4097;DHT22;2062;50.694;7.246;2023-04-24T02:14:09;11.40;48.80
4097;DHT22;2062;50.694;7.246;2023-04-24T02:16:36;11.40;48.60
4097;DHT22;2062;50.694;7.246;2023-04-24T02:19:03;11.40;48.60
4097;DHT22;2062;50.694;7.246;2023-04-24T02:21:29;11.30;48.50
4097;DHT22;2062;50.694;7.246;2023-04-24T02:23:57;11.30;48.60
4097;DHT22;2062;50.694;7.246;2023-04-24T02:26:24;11.30;48.50
4097;DHT22;2062;50.694;7.246;2023-04-24T02:28:51;11.30;48.50
4097;DHT22;2062;50.694;7.246;2023-04-24T02:31:20;11.20;48.30
4097;DHT22;2062;50.694;7.246;2023-04-24T02:33:47;11.20;48.20
4097;DHT22;2062;50.694;7.246;2023-04-24T02:36:14;11.20;48.20
4097;DHT22;2062;50.694;7.246;2023-04-24T02:38:40;11.20;48.30
4097;DHT22;2062;50.694;7.246;2023-04-24T02:41:07;11.10;48.20
4097;DHT22;2062;50.694;7.246;2023-04-24T02:43:34;11.10;48.20
4097;DHT22;2062;50.694;7.246;2023-04-24T02:46:01;11.00;48.20
4097;DHT22;2062;50.694;7.246;2023-04-24T02:48:29;11.00;48.10
4097;DHT22;2062;50.694;7.246;2023-04-24T02:50:56;11.00;48.10
4097;DHT22;2062;50.694;7.246;2023-04-24T02:53:23;10.90;48.10
4097;DHT22;2062;50.694;7.246;2023-04-24T02:55:50;10.90;48.10
4097;DHT22;2062;50.694;7.246;2023-04-24T02:58:17;10.80;48.10
4097;DHT22;2062;50.694;7.246;2023-04-24T03:00:45;10.80;48.00
4097;DHT22;2062;50.694;7.246;2023-04-24T03:03:12;10.70;48.10
4097;DHT22;2062;50.694;7.246;2023-04-24T03:05:40;10.60;48.00
4097;DHT22;2062;50.694;7.246;2023-04-24T03:08:07;10.60;48.10
4097;DHT22;2062;50.694;7.246;2023-04-24T03:10:33;10.50;48.20
4097;DHT22;2062;50.694;7.246;2023-04-24T03:13:00;10.40;48.00
4097;DHT22;2062;50.694;7.246;2023-04-24T03:15:27;10.40;48.10
4097;DHT22;2062;50.694;7.246;2023-04-24T03:17:54;10.40;48.10
4097;DHT22;2062;50.694;7.246;2023-04-24T03:20:21;10.30;48.20
4097;DHT22;2062;50.694;7.246;2023-04-24T03:22:49;10.20;48.10
4097;DHT22;2062;50.694;7.246;2023-04-24T03:25:16;10.20;48.20
4097;DHT22;2062;50.694;7.246;2023-04-24T03:27:43;10.10;48.40
4097;DHT22;2062;50.694;7.246;2023-04-24T03:30:10;10.10;48.40
4097;DHT22;2062;50.694;7.246;2023-04-24T03:32:37;10.00;48.40
4097;DHT22;2062;50.694;7.246;2023-04-24T03:35:05;10.00;48.50
4097;DHT22;2062;50.694;7.246;2023-04-24T03:37:33;10.00;48.50
4097;DHT22;2062;50.694;7.246;2023-04-24T03:40:01;10.00;48.60
4097;DHT22;2062;50.694;7.246;2023-04-24T03:42:28;10.00;48.70
4097;DHT22;2062;50.694;7.246;2023-04-24T03:44:54;9.90;48.60
4097;DHT22;2062;50.694;7.246;2023-04-24T03:47:21;9.90;48.60
4097;DHT22;2062;50.694;7.246;2023-04-24T03:49:48;9.80;48.40
4097;DHT22;2062;50.694;7.246;2023-04-24T03:52:15;9.80;48.40
4097;DHT22;2062;50.694;7.246;2023-04-24T03:54:42;9.80;48.50
4097;DHT22;2062;50.694;7.246;2023-04-24T03:57:10;9.70;48.50
4097;DHT22;2062;50.694;7.246;2023-04-24T03:59:37;9.70;48.60
4097;DHT22;2062;50.694;7.246;2023-04-24T04:02:04;9.70;48.70
4097;DHT22;2062;50.694;7.246;2023-04-24T04:04:31;9.60;48.70
4097;DHT22;2062;50.694;7.246;2023-04-24T04:06:57;9.80;48.70
4097;DHT22;2062;50.694;7.246;2023-04-24T04:09:26;9.60;48.70
4097;DHT22;2062;50.694;7.246;2023-04-24T04:11:53;9.60;48.70
4097;DHT22;2062;50.694;7.246;2023-04-24T04:14:22;9.50;48.80
4097;DHT22;2062;50.694;7.246;2023-04-24T04:16:49;9.50;48.70
4097;DHT22;2062;50.694;7.246;2023-04-24T04:19:16;9.40;48.70
4097;DHT22;2062;50.694;7.246;2023-04-24T04:21:43;9.40;48.80
4097;DHT22;2062;50.694;7.246;2023-04-24T04:24:11;9.40;48.90
4097;DHT22;2062;50.694;7.246;2023-04-24T04:26:38;9.40;48.90
4097;DHT22;2062;50.694;7.246;2023-04-24T04:29:06;9.30;49.00
4097;DHT22;2062;50.694;7.246;2023-04-24T04:31:34;9.20;49.30
4097;DHT22;2062;50.694;7.246;2023-04-24T04:34:02;9.20;49.30
4097;DHT22;2062;50.694;7.246;2023-04-24T04:36:29;9.20;49.20
4097;DHT22;2062;50.694;7.246;2023-04-24T04:38:56;9.20;49.40
4097;DHT22;2062;50.694;7.246;2023-04-24T04:41:25;9.20;49.30
4097;DHT22;2062;50.694;7.246;2023-04-24T04:43:51;9.10;49.50
4097;DHT22;2062;50.694;7.246;2023-04-24T04:46:18;9.10;49.60
4097;DHT22;2062;50.694;7.246;2023-04-24T04:48:46;9.10;49.60
4097;DHT22;2062;50.694;7.246;2023-04-24T04:51:13;9.10;49.60
4097;DHT22;2062;50.694;7.246;2023-04-24T04:53:40;9.10;49.50
4097;DHT22;2062;50.694;7.246;2023-04-24T04:56:07;9.10;49.60
4097;DHT22;2062;50.694;7.246;2023-04-24T04:58:34;9.20;49.60
4097;DHT22;2062;50.694;7.246;2023-04-24T05:01:01;9.20;49.70
4097;DHT22;2062;50.694;7.246;2023-04-24T05:03:27;9.10;49.70
4097;DHT22;2062;50.694;7.246;2023-04-24T05:05:56;9.20;49.70
4097;DHT22;2062;50.694;7.246;2023-04-24T05:08:24;9.20;49.70
4097;DHT22;2062;50.694;7.246;2023-04-24T05:10:50;9.20;50.10
4097;DHT22;2062;50.694;7.246;2023-04-24T05:13:17;9.20;49.80
4097;DHT22;2062;50.694;7.246;2023-04-24T05:15:44;9.20;49.90
4097;DHT22;2062;50.694;7.246;2023-04-24T05:18:11;9.20;49.80
4097;DHT22;2062;50.694;7.246;2023-04-24T05:20:37;9.30;49.90
4097;DHT22;2062;50.694;7.246;2023-04-24T05:23:06;9.30;50.00
4097;DHT22;2062;50.694;7.246;2023-04-24T05:25:32;9.30;50.10
4097;DHT22;2062;50.694;7.246;2023-04-24T05:28:00;9.30;50.20
4097;DHT22;2062;50.694;7.246;2023-04-24T05:30:27;9.30;50.10
4097;DHT22;2062;50.694;7.246;2023-04-24T05:32:54;9.40;50.00
4097;DHT22;2062;50.694;7.246;2023-04-24T05:35:21;9.40;50.00
4097;DHT22;2062;50.694;7.246;2023-04-24T05:37:48;9.40;50.00
4097;DHT22;2062;50.694;7.246;2023-04-24T05:40:16;9.40;50.20
4097;DHT22;2062;50.694;7.246;2023-04-24T05:42:43;9.40;50.20
4097;DHT22;2062;50.694;7.246;2023-04-24T05:45:10;9.50;50.40
4097;DHT22;2062;50.694;7.246;2023-04-24T05:47:41;9.50;50.30
4097;DHT22;2062;50.694;7.246;2023-04-24T05:50:09;9.50;50.20
4097;DHT22;2062;50.694;7.246;2023-04-24T05:52:36;9.50;50.10
4097;DHT22;2062;50.694;7.246;2023-04-24T05:55:03;9.60;50.30
4097;DHT22;2062;50.694;7.246;2023-04-24T05:57:32;9.60;50.30
4097;DHT22;2062;50.694;7.246;2023-04-24T05:59:59;9.60;50.30
4097;DHT22;2062;50.694;7.246;2023-04-24T06:02:25;9.70;50.50
4097;DHT22;2062;50.694;7.246;2023-04-24T06:04:53;9.70;50.40
4097;DHT22;2062;50.694;7.246;2023-04-24T06:07:20;9.80;50.40
4097;DHT22;2062;50.694;7.246;2023-04-24T06:09:47;9.80;50.40
4097;DHT22;2062;50.694;7.246;2023-04-24T06:12:14;9.80;50.40
4097;DHT22;2062;50.694;7.246;2023-04-24T06:14:42;9.90;50.30
4097;DHT22;2062;50.694;7.246;2023-04-24T06:17:09;9.90;50.40
4097;DHT22;2062;50.694;7.246;2023-04-24T06:19:36;9.90;50.30
4097;DHT22;2062;50.694;7.246;2023-04-24T06:22:03;10.00;50.20
4097;DHT22;2062;50.694;7.246;2023-04-24T06:24:30;10.00;50.20
4097;DHT22;2062;50.694;7.246;2023-04-24T06:26:56;10.00;50.20
4097;DHT22;2062;50.694;7.246;2023-04-24T06:29:25;10.00;50.10
4097;DHT22;2062;50.694;7.246;2023-04-24T06:31:53;10.00;50.10
4097;DHT22;2062;50.694;7.246;2023-04-24T06:34:20;10.10;50.30
4097;DHT22;2062;50.694;7.246;2023-04-24T06:36:47;10.10;50.20
4097;DHT22;2062;50.694;7.246;2023-04-24T06:39:14;10.10;50.20
4097;DHT22;2062;50.694;7.246;2023-04-24T06:41:41;10.10;50.20
4097;DHT22;2062;50.694;7.246;2023-04-24T06:44:07;10.10;50.20
4097;DHT22;2062;50.694;7.246;2023-04-24T06:46:35;10.10;50.50
4097;DHT22;2062;50.694;7.246;2023-04-24T06:49:03;10.10;50.50
4097;DHT22;2062;50.694;7.246;2023-04-24T06:51:30;10.20;50.80
4097;DHT22;2062;50.694;7.246;2023-04-24T06:53:58;10.20;50.80
4097;DHT22;2062;50.694;7.246;2023-04-24T06:56:25;10.30;51.10
4097;DHT22;2062;50.694;7.246;2023-04-24T06:58:54;10.20;51.00
4097;DHT22;2062;50.694;7.246;2023-04-24T07:01:21;10.20;51.00
4097;DHT22;2062;50.694;7.246;2023-04-24T07:03:47;10.20;51.10
4097;DHT22;2062;50.694;7.246;2023-04-24T07:06:16;10.20;51.20
4097;DHT22;2062;50.694;7.246;2023-04-24T07:08:44;10.20;51.40
4097;DHT22;2062;50.694;7.246;2023-04-24T07:11:12;10.20;51.30
4097;DHT22;2062;50.694;7.246;2023-04-24T07:13:38;10.20;51.40
4097;DHT22;2062;50.694;7.246;2023-04-24T07:16:07;10.20;51.80
4097;DHT22;2062;50.694;7.246;2023-04-24T07:18:34;10.20;52.20
4097;DHT22;2062;50.694;7.246;2023-04-24T07:21:02;10.20;51.90
4097;DHT22;2062;50.694;7.246;2023-04-24T07:23:30;10.20;52.00
4097;DHT22;2062;50.694;7.246;2023-04-24T07:25:57;10.20;52.30
4097;DHT22;2062;50.694;7.246;2023-04-24T07:28:24;10.20;52.60
4097;DHT22;2062;50.694;7.246;2023-04-24T07:30:51;10.10;52.60
4097;DHT22;2062;50.694;7.246;2023-04-24T07:33:19;10.10;52.50
4097;DHT22;2062;50.694;7.246;2023-04-24T07:35:46;10.10;52.70
4097;DHT22;2062;50.694;7.246;2023-04-24T07:38:13;10.10;52.70
4097;DHT22;2062;50.694;7.246;2023-04-24T07:40:41;10.10;53.10
4097;DHT22;2062;50.694;7.246;2023-04-24T07:43:08;10.10;53.00
4097;DHT22;2062;50.694;7.246;2023-04-24T07:45:35;10.10;53.10
4097;DHT22;2062;50.694;7.246;2023-04-24T07:48:03;10.10;53.00
4097;DHT22;2062;50.694;7.246;2023-04-24T07:50:29;10.10;53.00
4097;DHT22;2062;50.694;7.246;2023-04-24T07:52:56;10.10;53.10
4097;DHT22;2062;50.694;7.246;2023-04-24T07:55:23;10.10;53.20
4097;DHT22;2062;50.694;7.246;2023-04-24T07:57:51;10.10;53.40
4097;DHT22;2062;50.694;7.246;2023-04-24T08:00:18;10.10;53.50
4097;DHT22;2062;50.694;7.246;2023-04-24T08:02:45;10.10;53.50
4097;DHT22;2062;50.694;7.246;2023-04-24T08:05:12;10.10;53.60
4097;DHT22;2062;50.694;7.246;2023-04-24T08:07:38;10.10;53.40
4097;DHT22;2062;50.694;7.246;2023-04-24T08:10:10;10.10;53.60
4097;DHT22;2062;50.694;7.246;2023-04-24T08:12:37;10.00;53.60
4097;DHT22;2062;50.694;7.246;2023-04-24T08:15:06;10.10;54.60
4097;DHT22;2062;50.694;7.246;2023-04-24T08:17:33;10.00;53.80
4097;DHT22;2062;50.694;7.246;2023-04-24T08:20:00;10.00;54.60
4097;DHT22;2062;50.694;7.246;2023-04-24T08:22:28;10.00;54.50
4097;DHT22;2062;50.694;7.246;2023-04-24T08:24:55;9.90;54.00
4097;DHT22;2062;50.694;7.246;2023-04-24T08:27:22;9.90;54.10
4097;DHT22;2062;50.694;7.246;2023-04-24T08:29:49;9.90;54.40
4097;DHT22;2062;50.694;7.246;2023-04-24T08:32:17;9.90;54.70
4097;DHT22;2062;50.694;7.246;2023-04-24T08:34:44;9.90;54.60
4097;DHT22;2062;50.694;7.246;2023-04-24T08:37:11;9.80;54.70
4097;DHT22;2062;50.694;7.246;2023-04-24T08:39:38;9.90;54.60
4097;DHT22;2062;50.694;7.246;2023-04-24T08:42:05;9.80;54.80
4097;DHT22;2062;50.694;7.246;2023-04-24T08:44:34;9.80;54.80
4097;DHT22;2062;50.694;7.246;2023-04-24T08:47:01;9.80;54.70
4097;DHT22;2062;50.694;7.246;2023-04-24T08:49:30;9.70;55.10
4097;DHT22;2062;50.694;7.246;2023-04-24T08:51:57;9.70;54.80
4097;DHT22;2062;50.694;7.246;2023-04-24T08:54:25;9.70;55.20
4097;DHT22;2062;50.694;7.246;2023-04-24T08:56:53;9.70;54.80
4097;DHT22;2062;50.694;7.246;2023-04-24T08:59:21;9.70;54.70
4097;DHT22;2062;50.694;7.246;2023-04-24T09:01:49;9.60;54.80
4097;DHT22;2062;50.694;7.246;2023-04-24T09:04:17;9.50;54.70
4097;DHT22;2062;50.694;7.246;2023-04-24T09:06:49;9.50;54.60
4097;DHT22;2062;50.694;7.246;2023-04-24T09:09:16;9.50;54.70
4097;DHT22;2062;50.694;7.246;2023-04-24T09:11:44;9.40;54.70
4097;DHT22;2062;50.694;7.246;2023-04-24T09:14:11;9.40;54.70
4097;DHT22;2062;50.694;7.246;2023-04-24T09:16:40;9.40;54.90
4097;DHT22;2062;50.694;7.246;2023-04-24T09:19:07;9.40;54.90
4097;DHT22;2062;50.694;7.246;2023-04-24T09:21:35;9.30;55.10
4097;DHT22;2062;50.694;7.246;2023-04-24T09:24:04;9.30;55.30
4097;DHT22;2062;50.694;7.246;2023-04-24T09:26:35;9.30;55.20
4097;DHT22;2062;50.694;7.246;2023-04-24T09:29:03;9.30;55.40
4097;DHT22;2062;50.694;7.246;2023-04-24T09:31:30;9.30;55.40
4097;DHT22;2062;50.694;7.246;2023-04-24T09:34:00;9.30;55.60
4097;DHT22;2062;50.694;7.246;2023-04-24T09:36:30;9.30;55.60
4097;DHT22;2062;50.694;7.246;2023-04-24T09:38:59;9.30;55.50
4097;DHT22;2062;50.694;7.246;2023-04-24T09:41:27;9.30;55.80
4097;DHT22;2062;50.694;7.246;2023-04-24T09:43:55;9.30;55.90
4097;DHT22;2062;50.694;7.246;2023-04-24T09:46:29;9.40;56.00
4097;DHT22;2062;50.694;7.246;2023-04-24T09:48:57;9.40;56.30
4097;DHT22;2062;50.694;7.246;2023-04-24T09:51:34;9.30;56.00
4097;DHT22;2062;50.694;7.246;2023-04-24T09:54:02;9.40;56.40
4097;DHT22;2062;50.694;7.246;2023-04-24T09:56:32;9.40;56.40
4097;DHT22;2062;50.694;7.246;2023-04-24T09:59:04;9.40;56.60
4097;DHT22;2062;50.694;7.246;2023-04-24T10:01:32;9.40;57.10
4097;DHT22;2062;50.694;7.246;2023-04-24T10:03:59;9.40;56.70
4097;DHT22;2062;50.694;7.246;2023-04-24T10:06:32;9.40;56.70
4097;DHT22;2062;50.694;7.246;2023-04-24T10:08:59;9.40;57.00
4097;DHT22;2062;50.694;7.246;2023-04-24T10:11:27;9.40;56.70
4097;DHT22;2062;50.694;7.246;2023-04-24T10:13:55;9.50;56.80
4097;DHT22;2062;50.694;7.246;2023-04-24T10:16:23;9.40;56.60
4097;DHT22;2062;50.694;7.246;2023-04-24T10:18:52;9.40;56.50
4097;DHT22;2062;50.694;7.246;2023-04-24T10:21:20;9.40;56.50
4097;DHT22;2062;50.694;7.246;2023-04-24T10:23:48;9.40;56.60
4097;DHT22;2062;50.694;7.246;2023-04-24T10:26:16;9.40;56.80
4097;DHT22;2062;50.694;7.246;2023-04-24T10:28:45;9.40;56.90
4097;DHT22;2062;50.694;7.246;2023-04-24T10:31:14;9.40;56.80
4097;DHT22;2062;50.694;7.246;2023-04-24T10:33:42;9.40;56.60
4097;DHT22;2062;50.694;7.246;2023-04-24T10:36:10;9.40;57.10
4097;DHT22;2062;50.694;7.246;2023-04-24T10:38:40;9.40;57.10
4097;DHT22;2062;50.694;7.246;2023-04-24T10:41:08;9.50;57.20
4097;DHT22;2062;50.694;7.246;2023-04-24T10:43:41;9.50;57.80
4097;DHT22;2062;50.694;7.246;2023-04-24T10:46:09;9.50;57.30
4097;DHT22;2062;50.694;7.246;2023-04-24T10:48:42;9.50;57.30
4097;DHT22;2062;50.694;7.246;2023-04-24T10:51:12;9.50;57.30
4097;DHT22;2062;50.694;7.246;2023-04-24T10:53:39;9.50;57.30
4097;DHT22;2062;50.694;7.246;2023-04-24T10:56:07;9.50;57.50
4097;DHT22;2062;50.694;7.246;2023-04-24T10:58:39;9.60;57.50
4097;DHT22;2062;50.694;7.246;2023-04-24T11:01:07;9.60;57.20
4097;DHT22;2062;50.694;7.246;2023-04-24T11:03:34;9.60;57.50
4097;DHT22;2062;50.694;7.246;2023-04-24T11:06:04;9.60;57.50
4097;DHT22;2062;50.694;7.246;2023-04-24T11:08:38;9.60;57.40
4097;DHT22;2062;50.694;7.246;2023-04-24T11:11:10;9.60;57.60
4097;DHT22;2062;50.694;7.246;2023-04-24T11:14:05;9.70;57.60
4097;DHT22;2062;50.694;7.246;2023-04-24T11:16:34;9.60;57.80
4097;DHT22;2062;50.694;7.246;2023-04-24T11:19:04;9.60;57.50
4097;DHT22;2062;50.694;7.246;2023-04-24T11:21:39;9.70;57.80
4097;DHT22;2062;50.694;7.246;2023-04-24T11:24:23;9.60;58.40
4097;DHT22;2062;50.694;7.246;2023-04-24T11:26:51;9.70;58.00
4097;DHT22;2062;50.694;7.246;2023-04-24T11:29:20;9.80;58.00
4097;DHT22;2062;50.694;7.246;2023-04-24T11:31:47;9.80;58.10
4097;DHT22;2062;50.694;7.246;2023-04-24T11:34:17;10.00;58.00
4097;DHT22;2062;50.694;7.246;2023-04-24T11:36:46;10.20;58.40
4097;DHT22;2062;50.694;7.246;2023-04-24T11:39:14;10.30;58.60
4097;DHT22;2062;50.694;7.246;2023-04-24T11:41:41;10.40;58.50
4097;DHT22;2062;50.694;7.246;2023-04-24T11:44:09;10.50;58.40
4097;DHT22;2062;50.694;7.246;2023-04-24T11:46:36;10.60;58.20
4097;DHT22;2062;50.694;7.246;2023-04-24T11:49:05;10.60;58.50
4097;DHT22;2062;50.694;7.246;2023-04-24T11:51:32;10.70;58.40
4097;DHT22;2062;50.694;7.246;2023-04-24T11:54:02;10.80;58.60
4097;DHT22;2062;50.694;7.246;2023-04-24T11:56:29;10.80;58.60
4097;DHT22;2062;50.694;7.246;2023-04-24T11:58:56;10.90;58.70
4097;DHT22;2062;50.694;7.246;2023-04-24T12:01:23;10.90;58.60
4097;DHT22;2062;50.694;7.246;2023-04-24T12:03:50;10.90;58.60
4097;DHT22;2062;50.694;7.246;2023-04-24T12:06:17;11.00;58.50
4097;DHT22;2062;50.694;7.246;2023-04-24T12:08:46;11.00;58.40
4097;DHT22;2062;50.694;7.246;2023-04-24T12:11:15;11.10;58.40
4097;DHT22;2062;50.694;7.246;2023-04-24T12:13:44;11.10;58.30
4097;DHT22;2062;50.694;7.246;2023-04-24T12:16:11;11.10;58.10
4097;DHT22;2062;50.694;7.246;2023-04-24T12:18:42;11.20;58.00
4097;DHT22;2062;50.694;7.246;2023-04-24T12:21:18;11.10;58.00
4097;DHT22;2062;50.694;7.246;2023-04-24T12:23:45;11.10;57.90
4097;DHT22;2062;50.694;7.246;2023-04-24T12:26:16;11.10;57.90
4097;DHT22;2062;50.694;7.246;2023-04-24T12:28:46;11.10;57.80
4097;DHT22;2062;50.694;7.246;2023-04-24T12:31:14;11.10;57.80
4097;DHT22;2062;50.694;7.246;2023-04-24T12:33:41;11.10;57.80
4097;DHT22;2062;50.694;7.246;2023-04-24T12:36:10;11.20;57.70
4097;DHT22;2062;50.694;7.246;2023-04-24T12:38:38;11.20;57.60
4097;DHT22;2062;50.694;7.246;2023-04-24T12:41:07;11.20;57.60
4097;DHT22;2062;50.694;7.246;2023-04-24T12:43:36;11.20;57.60
4097;DHT22;2062;50.694;7.246;2023-04-24T12:46:04;11.20;57.60
4097;DHT22;2062;50.694;7.246;2023-04-24T12:48:31;11.20;57.60
4097;DHT22;2062;50.694;7.246;2023-04-24T12:50:58;11.30;58.10
4097;DHT22;2062;50.694;7.246;2023-04-24T12:53:28;11.30;57.90
4097;DHT22;2062;50.694;7.246;2023-04-24T12:55:56;11.40;58.00
4097;DHT22;2062;50.694;7.246;2023-04-24T12:58:24;11.50;57.90
4097;DHT22;2062;50.694;7.246;2023-04-24T13:00:52;11.60;57.90
4097;DHT22;2062;50.694;7.246;2023-04-24T13:03:19;11.60;57.80
4097;DHT22;2062;50.694;7.246;2023-04-24T13:05:47;11.80;57.80
4097;DHT22;2062;50.694;7.246;2023-04-24T13:08:15;11.80;57.70
4097;DHT22;2062;50.694;7.246;2023-04-24T13:10:42;11.90;57.70
4097;DHT22;2062;50.694;7.246;2023-04-24T13:13:09;12.00;57.60
4097;DHT22;2062;50.694;7.246;2023-04-24T13:15:36;12.10;57.60
4097;DHT22;2062;50.694;7.246;2023-04-24T13:18:04;12.20;57.70
4097;DHT22;2062;50.694;7.246;2023-04-24T13:20:31;12.30;57.60
4097;DHT22;2062;50.694;7.246;2023-04-24T13:22:58;12.30;57.50
4097;DHT22;2062;50.694;7.246;2023-04-24T13:25:25;12.30;58.00
4097;DHT22;2062;50.694;7.246;2023-04-24T13:27:52;12.40;57.10
4097;DHT22;2062;50.694;7.246;2023-04-24T13:30:19;12.40;56.90
4097;DHT22;2062;50.694;7.246;2023-04-24T13:32:46;12.40;57.00
4097;DHT22;2062;50.694;7.246;2023-04-24T13:35:14;12.40;56.10
4097;DHT22;2062;50.694;7.246;2023-04-24T13:37:41;12.30;56.00
4097;DHT22;2062;50.694;7.246;2023-04-24T13:40:09;12.30;56.10
4097;DHT22;2062;50.694;7.246;2023-04-24T13:42:36;12.30;56.30
4097;DHT22;2062;50.694;7.246;2023-04-24T13:45:03;12.30;57.10
4097;DHT22;2062;50.694;7.246;2023-04-24T13:47:31;12.30;56.40
4097;DHT22;2062;50.694;7.246;2023-04-24T13:49:57;12.30;56.40
4097;DHT22;2062;50.694;7.246;2023-04-24T13:52:26;12.30;56.20
4097;DHT22;2062;50.694;7.246;2023-04-24T13:54:52;12.30;55.90
4097;DHT22;2062;50.694;7.246;2023-04-24T13:57:19;12.30;55.50
4097;DHT22;2062;50.694;7.246;2023-04-24T13:59:46;12.40;55.70
4097;DHT22;2062;50.694;7.246;2023-04-24T14:02:13;12.40;55.40
4097;DHT22;2062;50.694;7.246;2023-04-24T14:04:40;12.50;55.20
4097;DHT22;2062;50.694;7.246;2023-04-24T14:07:07;12.50;54.90
4097;DHT22;2062;50.694;7.246;2023-04-24T14:09:35;12.60;55.40
4097;DHT22;2062;50.694;7.246;2023-04-24T14:12:02;12.70;55.10
4097;DHT22;2062;50.694;7.246;2023-04-24T14:14:30;12.70;54.30
4097;DHT22;2062;50.694;7.246;2023-04-24T14:16:57;12.80;54.30
4097;DHT22;2062;50.694;7.246;2023-04-24T14:19:23;12.90;54.10
4097;DHT22;2062;50.694;7.246;2023-04-24T14:21:50;13.00;53.80
4097;DHT22;2062;50.694;7.246;2023-04-24T14:24:18;13.00;53.10
4097;DHT22;2062;50.694;7.246;2023-04-24T14:26:46;13.00;53.20
4097;DHT22;2062;50.694;7.246;2023-04-24T14:29:13;13.00;52.30
4097;DHT22;2062;50.694;7.246;2023-04-24T14:31:40;13.00;52.60
4097;DHT22;2062;50.694;7.246;2023-04-24T14:34:06;13.00;52.60
4097;DHT22;2062;50.694;7.246;2023-04-24T14:36:33;12.90;52.30
4097;DHT22;2062;50.694;7.246;2023-04-24T14:39:00;13.00;52.50
4097;DHT22;2062;50.694;7.246;2023-04-24T14:41:31;12.90;52.20
4097;DHT22;2062;50.694;7.246;2023-04-24T14:44:00;12.90;52.30
4097;DHT22;2062;50.694;7.246;2023-04-24T14:46:27;12.90;52.20
4097;DHT22;2062;50.694;7.246;2023-04-24T14:48:54;12.90;52.20
4097;DHT22;2062;50.694;7.246;2023-04-24T14:51:21;12.80;51.80
4097;DHT22;2062;50.694;7.246;2023-04-24T14:53:48;12.80;51.70
4097;DHT22;2062;50.694;7.246;2023-04-24T14:56:15;12.80;51.70
4097;DHT22;2062;50.694;7.246;2023-04-24T14:58:42;12.70;51.80
4097;DHT22;2062;50.694;7.246;2023-04-24T15:01:10;12.70;51.70
4097;DHT22;2062;50.694;7.246;2023-04-24T15:03:38;12.60;51.90
4097;DHT22;2062;50.694;7.246;2023-04-24T15:06:05;12.60;52.00
4097;DHT22;2062;50.694;7.246;2023-04-24T15:08:32;12.60;52.00
4097;DHT22;2062;50.694;7.246;2023-04-24T15:10:59;12.50;52.20
4097;DHT22;2062;50.694;7.246;2023-04-24T15:13:26;12.50;51.90
4097;DHT22;2062;50.694;7.246;2023-04-24T15:15:53;12.50;52.40
4097;DHT22;2062;50.694;7.246;2023-04-24T15:18:21;12.50;52.60
4097;DHT22;2062;50.694;7.246;2023-04-24T15:20:48;12.60;52.70
4097;DHT22;2062;50.694;7.246;2023-04-24T15:23:15;12.70;52.80
4097;DHT22;2062;50.694;7.246;2023-04-24T15:25:41;12.80;52.80
4097;DHT22;2062;50.694;7.246;2023-04-24T15:28:09;12.90;52.50
4097;DHT22;2062;50.694;7.246;2023-04-24T15:30:36;13.00;51.80
4097;DHT22;2062;50.694;7.246;2023-04-24T15:33:03;13.10;51.70
4097;DHT22;2062;50.694;7.246;2023-04-24T15:35:31;13.20;51.50
4097;DHT22;2062;50.694;7.246;2023-04-24T15:37:58;13.40;51.60
4097;DHT22;2062;50.694;7.246;2023-04-24T15:40:25;13.50;50.80
4097;DHT22;2062;50.694;7.246;2023-04-24T15:42:53;13.60;51.10
4097;DHT22;2062;50.694;7.246;2023-04-24T15:45:19;13.60;51.00
4097;DHT22;2062;50.694;7.246;2023-04-24T15:47:46;13.70;50.80
4097;DHT22;2062;50.694;7.246;2023-04-24T15:50:13;13.80;50.30
4097;DHT22;2062;50.694;7.246;2023-04-24T15:52:43;13.80;49.40
4097;DHT22;2062;50.694;7.246;2023-04-24T15:55:10;13.80;49.30
4097;DHT22;2062;50.694;7.246;2023-04-24T15:57:36;13.80;49.20
4097;DHT22;2062;50.694;7.246;2023-04-24T16:00:05;14.00;49.10
4097;DHT22;2062;50.694;7.246;2023-04-24T16:02:34;13.90;48.50
4097;DHT22;2062;50.694;7.246;2023-04-24T16:05:01;13.80;48.60
4097;DHT22;2062;50.694;7.246;2023-04-24T16:07:28;13.80;48.60
4097;DHT22;2062;50.694;7.246;2023-04-24T16:09:56;13.80;48.60